createdAt,value
2018-01-15T00:00:25.943Z,76.48
2018-01-15T00:01:06.506Z,76.61
2018-01-15T00:01:47.070Z,76.42
2018-01-15T00:02:27.586Z,76.42
2018-01-15T00:03:08.172Z,76.23
2018-01-15T00:03:48.694Z,76.42
2018-01-15T00:04:29.226Z,76.61
2018-01-15T00:05:09.797Z,76.48
2018-01-15T00:05:50.321Z,76.57
2018-01-15T00:06:30.838Z,77.05
2018-01-15T00:07:11.373Z,77.14
2018-01-15T00:07:51.908Z,76.57
2018-01-15T00:08:32.440Z,77.52
2018-01-15T00:09:12.968Z,77.52
2018-01-15T00:09:53.489Z,77.05
2018-01-15T00:10:34.074Z,77.52
2018-01-15T00:11:14.603Z,77.24
2018-01-15T00:11:55.131Z,77.05
2018-01-15T00:12:35.689Z,77.24
2018-01-15T00:13:16.203Z,76.76
2018-01-15T00:13:56.719Z,76.86
2018-01-15T00:14:37.308Z,76.32
2018-01-15T00:15:17.849Z,76.2
2018-01-15T00:15:58.388Z,76.2
2018-01-15T00:16:39.005Z,76.29
2018-01-15T00:17:19.507Z,76.39
2018-01-15T00:18:00.136Z,76.29
2018-01-15T00:18:40.624Z,76.48
2018-01-15T00:19:21.246Z,76.48
2018-01-15T00:20:01.731Z,76.48
2018-01-15T00:20:42.341Z,76.29
2018-01-15T00:21:22.792Z,76.48
2018-01-15T00:22:03.452Z,76.29
2018-01-15T00:22:43.871Z,76.67
2018-01-15T00:23:24.419Z,77.05
2018-01-15T00:24:05.025Z,76.95
2018-01-15T00:24:45.592Z,76.76
2018-01-15T00:25:26.106Z,77.24
2018-01-15T00:26:06.638Z,76.67
2018-01-15T00:26:47.157Z,77.05
2018-01-15T00:27:27.759Z,77.28
2018-01-15T00:28:08.272Z,76.52
2018-01-15T00:28:48.775Z,76.29
2018-01-15T00:29:29.342Z,76.48
2018-01-15T00:30:09.912Z,76.23
2018-01-15T00:30:50.487Z,76.39
2018-01-15T00:31:31.040Z,76.39
2018-01-15T00:32:11.547Z,76.67
2018-01-15T00:32:52.090Z,76.67
2018-01-15T00:33:32.667Z,77.24
2018-01-15T00:34:13.192Z,76.99
2018-01-15T00:34:53.720Z,76.95
2018-01-15T00:35:34.278Z,77.43
2018-01-15T00:36:14.799Z,77.33
2018-01-15T00:36:55.410Z,76.95
2018-01-15T00:37:35.941Z,77.24
2018-01-15T00:38:16.467Z,77.18
2018-01-15T00:38:56.995Z,76.67
2018-01-15T00:39:37.561Z,76.67
2018-01-15T00:40:18.050Z,76.29
2018-01-15T00:40:58.593Z,76.52
2018-01-15T00:41:39.160Z,76.39
2018-01-15T00:42:19.679Z,76.86
2018-01-15T00:43:00.244Z,76.57
2018-01-15T00:43:40.731Z,76.86
2018-01-15T00:44:21.312Z,76.2
2018-01-15T00:45:01.768Z,76.67
2018-01-15T00:45:42.401Z,76.39
2018-01-15T00:46:22.928Z,76.29
2018-01-15T00:47:03.462Z,77.14
2018-01-15T00:47:44.054Z,76.48
2018-01-15T00:48:24.814Z,77.05
2018-01-15T00:49:05.303Z,76.95
2018-01-15T00:49:45.861Z,76.95
2018-01-15T00:50:26.407Z,77.05
2018-01-15T00:51:06.930Z,77.33
2018-01-15T00:51:47.487Z,77.43
2018-01-15T00:52:28.025Z,77.43
2018-01-15T00:53:08.653Z,77.71
2018-01-15T00:53:49.604Z,77.62
2018-01-15T00:54:30.206Z,77.52
2018-01-15T00:55:10.807Z,77.05
2018-01-15T00:55:51.294Z,77.71
2018-01-15T00:56:31.811Z,77.81
2018-01-15T00:57:12.350Z,77.81
2018-01-15T00:57:52.843Z,77.62
2018-01-15T00:58:33.358Z,77.52
2018-01-15T00:59:14.026Z,77.81
2018-01-15T00:59:55.588Z,77.9
2018-01-15T01:00:36.078Z,78
2018-01-15T01:01:16.603Z,77.52
2018-01-15T01:01:57.139Z,77.71
2018-01-15T01:02:37.679Z,77.52
2018-01-15T01:03:18.221Z,77.05
2018-01-15T01:03:59.353Z,77.52
2018-01-15T01:04:40.211Z,77.14
2018-01-15T01:05:21.321Z,77.33
2018-01-15T01:06:01.964Z,76.95
2018-01-15T01:06:42.528Z,77.52
2018-01-15T01:07:23.000Z,77.52
2018-01-15T01:08:03.529Z,77.05
2018-01-15T01:08:44.541Z,77.14
2018-01-15T01:09:25.124Z,77.52
2018-01-15T01:10:05.615Z,77.62
2018-01-15T01:10:46.333Z,77.71
2018-01-15T01:11:26.862Z,77.52
2018-01-15T01:12:07.389Z,77.62
2018-01-15T01:12:47.868Z,77.48
2018-01-15T01:13:28.390Z,77.33
2018-01-15T01:14:10.227Z,77.9
2018-01-15T01:14:50.709Z,77.48
2018-01-15T01:15:31.212Z,77.52
2018-01-15T01:16:11.750Z,77.71
2018-01-15T01:16:52.277Z,77.43
2018-01-15T01:17:32.768Z,77.05
2018-01-15T01:18:13.360Z,77.14
2018-01-15T01:18:53.875Z,77.05
2018-01-15T01:19:34.871Z,77.62
2018-01-15T01:20:15.444Z,77.62
2018-01-15T01:20:55.936Z,77.9
2018-01-15T01:21:36.527Z,77.9
2018-01-15T01:22:17.029Z,77.58
2018-01-15T01:22:57.608Z,77.48
2018-01-15T01:23:38.110Z,77.77
2018-01-15T01:24:18.718Z,78.05
2018-01-15T01:24:59.756Z,78.53
2018-01-15T01:25:40.361Z,78.43
2018-01-15T01:26:20.903Z,78.43
2018-01-15T01:27:01.465Z,78.43
2018-01-15T01:27:41.983Z,78.34
2018-01-15T01:28:22.495Z,78.43
2018-01-15T01:29:03.038Z,78.43
2018-01-15T01:29:43.534Z,78.72
2018-01-15T01:30:24.098Z,78.81
2018-01-15T01:31:04.611Z,79.19
2018-01-15T01:31:45.160Z,79.28
2018-01-15T01:32:25.654Z,78.43
2018-01-15T01:33:06.181Z,79.28
2018-01-15T01:33:46.752Z,78.43
2018-01-15T01:34:27.293Z,78.53
2018-01-15T01:35:07.849Z,78.43
2018-01-15T01:35:48.434Z,78.62
2018-01-15T01:36:28.946Z,78.62
2018-01-15T01:37:09.451Z,78.34
2018-01-15T01:37:49.993Z,78.53
2018-01-15T01:38:30.528Z,78.43
2018-01-15T01:39:11.039Z,78.75
2018-01-15T01:39:51.584Z,78.28
2018-01-15T01:40:32.144Z,77.81
2018-01-15T01:41:12.629Z,77.81
2018-01-15T01:41:53.129Z,78.05
2018-01-15T01:42:33.682Z,78.15
2018-01-15T01:43:14.226Z,77.9
2018-01-15T01:43:54.852Z,78.09
2018-01-15T01:44:35.346Z,77.52
2018-01-15T01:45:15.900Z,77.62
2018-01-15T01:45:56.406Z,77.29
2018-01-15T01:46:36.950Z,78.34
2018-01-15T01:47:17.937Z,78.62
2018-01-15T01:47:58.941Z,78.43
2018-01-15T01:48:39.512Z,78.62
2018-01-15T01:49:20.042Z,78.72
2018-01-15T01:50:00.567Z,78.34
2018-01-15T01:50:41.138Z,78.24
2018-01-15T01:51:21.638Z,78.43
2018-01-15T01:52:02.201Z,78.34
2018-01-15T01:52:42.705Z,78.34
2018-01-15T01:53:23.270Z,78.24
2018-01-15T01:54:03.799Z,78.15
2018-01-15T01:54:44.365Z,78.05
2018-01-15T01:55:24.829Z,77.86
2018-01-15T01:56:05.392Z,78.15
2018-01-15T01:56:45.945Z,78.05
2018-01-15T01:57:26.481Z,78.05
2018-01-15T01:58:09.449Z,77.77
2018-01-15T01:58:50.409Z,77.77
2018-01-15T01:59:30.951Z,78.15
2018-01-15T02:00:11.473Z,78.24
2018-01-15T02:00:52.004Z,78.43
2018-01-15T02:01:32.816Z,78.62
2018-01-15T02:02:13.627Z,77.96
2018-01-15T02:02:54.287Z,77.96
2018-01-15T02:03:34.851Z,78.34
2018-01-15T02:04:15.338Z,77.96
2018-01-15T02:04:55.868Z,77.96
2018-01-15T02:05:36.435Z,78.05
2018-01-15T02:06:17.014Z,78.05
2018-01-15T02:06:58.210Z,78.24
2018-01-15T02:07:39.059Z,78.15
2018-01-15T02:08:19.709Z,77.96
2018-01-15T02:09:00.222Z,78.53
2018-01-15T02:09:40.865Z,78.72
2018-01-15T02:10:21.426Z,78.91
2018-01-15T02:11:01.952Z,78.91
2018-01-15T02:11:42.855Z,78.43
2018-01-15T02:12:23.425Z,78.34
2018-01-15T02:13:04.387Z,78.43
2018-01-15T02:13:44.910Z,78.43
2018-01-15T02:14:25.470Z,78.53
2018-01-15T02:15:05.945Z,78.53
2018-01-15T02:15:46.484Z,78.53
2018-01-15T02:16:27.411Z,78.91
2018-01-15T02:17:09.047Z,78.53
2018-01-15T02:17:49.405Z,78.81
2018-01-15T02:18:29.961Z,78.81
2018-01-15T02:19:10.456Z,79
2018-01-15T02:19:51.033Z,79
2018-01-15T02:20:31.566Z,78.91
2018-01-15T02:21:12.044Z,79.47
2018-01-15T02:21:52.746Z,79.38
2018-01-15T02:22:33.349Z,78.62
2018-01-15T02:23:14.105Z,79.19
2018-01-15T02:23:54.596Z,78.91
2018-01-15T02:24:35.142Z,78.91
2018-01-15T02:25:15.733Z,78.62
2018-01-15T02:25:56.212Z,78.91
2018-01-15T02:26:36.785Z,79.47
2018-01-15T02:27:18.046Z,78.91
2018-01-15T02:27:59.157Z,78.91
2018-01-15T02:28:39.670Z,79.38
2018-01-15T02:29:20.204Z,79.57
2018-01-15T02:30:00.744Z,79.38
2018-01-15T02:30:41.251Z,79.38
2018-01-15T02:31:21.825Z,79.95
2018-01-15T02:32:02.297Z,79.95
2018-01-15T02:32:43.542Z,79.66
2018-01-15T02:33:24.628Z,79.19
2018-01-15T02:34:05.185Z,79.38
2018-01-15T02:34:45.686Z,79.1
2018-01-15T02:35:26.211Z,79.19
2018-01-15T02:36:06.735Z,78.81
2018-01-15T02:36:47.508Z,78.53
2018-01-15T02:37:29.147Z,78.34
2018-01-15T02:38:09.702Z,78.47
2018-01-15T02:38:49.978Z,78
2018-01-15T02:39:30.532Z,78.09
2018-01-15T02:40:11.066Z,77.62
2018-01-15T02:40:51.594Z,77.9
2018-01-15T02:41:32.145Z,77.9
2018-01-15T02:42:12.687Z,77.81
2018-01-15T02:42:53.286Z,77.62
2018-01-15T02:44:52.094Z,76.95
2018-01-15T02:45:34.494Z,77.14
2018-01-15T02:46:15.060Z,77.24
2018-01-15T02:46:55.607Z,77.24
2018-01-15T02:47:36.102Z,77.24
2018-01-15T02:48:16.638Z,77.52
2018-01-15T02:48:57.173Z,76.95
2018-01-15T02:49:37.707Z,77.52
2018-01-15T02:50:18.253Z,77.71
2018-01-15T02:50:59.036Z,77.52
2018-01-15T02:51:41.737Z,77.81
2018-01-15T02:52:22.272Z,77.37
2018-01-15T02:53:02.770Z,77.52
2018-01-15T02:53:43.309Z,77.52
2018-01-15T02:54:24.565Z,77.43
2018-01-15T02:55:05.843Z,77.43
2018-01-15T02:55:46.348Z,77.9
2018-01-15T02:56:26.908Z,77.71
2018-01-15T02:57:07.420Z,77.9
2018-01-15T02:57:47.990Z,77.81
2018-01-15T02:58:28.483Z,77.62
2018-01-15T02:59:09.945Z,77.9
2018-01-15T02:59:50.784Z,78.38
2018-01-15T03:00:31.406Z,78.09
2018-01-15T03:01:11.993Z,78
2018-01-15T03:01:52.514Z,77.81
2018-01-15T03:02:33.055Z,77.81
2018-01-15T03:03:13.566Z,78.28
2018-01-15T03:03:54.167Z,78.19
2018-01-15T03:04:34.741Z,77.81
2018-01-15T03:05:15.290Z,77.75
2018-01-15T03:05:55.739Z,77.9
2018-01-15T03:06:36.763Z,77.52
2018-01-15T03:07:17.407Z,77.71
2018-01-15T03:07:59.131Z,77.43
2018-01-15T03:08:40.114Z,77.81
2018-01-15T03:09:20.228Z,77.84
2018-01-15T03:10:01.048Z,77.94
2018-01-15T03:10:41.544Z,77.62
2018-01-15T03:11:22.051Z,77.71
2018-01-15T03:12:02.575Z,77.56
2018-01-15T03:12:43.512Z,77.52
2018-01-15T03:13:24.346Z,77.9
2018-01-15T03:14:04.896Z,78
2018-01-15T03:14:45.422Z,78.28
2018-01-15T03:15:25.906Z,78.38
2018-01-15T03:16:06.463Z,78.66
2018-01-15T03:16:47.137Z,78.75
2018-01-15T03:17:27.869Z,78.38
2018-01-15T03:18:08.699Z,78.56
2018-01-15T03:18:49.376Z,78.56
2018-01-15T03:19:29.916Z,78.38
2018-01-15T03:20:10.468Z,78.38
2018-01-15T03:20:50.954Z,78.66
2018-01-15T03:21:31.545Z,78.38
2018-01-15T03:22:12.080Z,78.61
2018-01-15T03:22:52.524Z,78.7
2018-01-15T03:23:34.110Z,77.9
2018-01-15T03:24:14.659Z,77.84
2018-01-15T03:24:55.213Z,78.09
2018-01-15T03:25:35.756Z,78.03
2018-01-15T03:26:16.442Z,77.81
2018-01-15T03:26:56.940Z,78
2018-01-15T03:27:37.499Z,78.19
2018-01-15T03:28:19.196Z,78.23
2018-01-15T03:28:59.294Z,77.62
2018-01-15T03:29:39.798Z,77.84
2018-01-15T03:30:20.312Z,77.37
2018-01-15T03:31:00.883Z,77.28
2018-01-15T03:31:41.477Z,76.71
2018-01-15T03:32:22.215Z,76.52
2018-01-15T03:33:02.685Z,77.09
2018-01-15T03:33:43.440Z,76.61
2018-01-15T03:34:24.269Z,76.99
2018-01-15T03:35:04.868Z,76.23
2018-01-15T03:35:45.878Z,76.42
2018-01-15T03:36:26.515Z,76.61
2018-01-15T03:37:07.060Z,76.52
2018-01-15T03:37:47.575Z,76.42
2018-01-15T03:38:28.864Z,76.32
2018-01-15T03:39:09.593Z,76.76
2018-01-15T03:39:50.508Z,76.71
2018-01-15T03:40:31.086Z,76.52
2018-01-15T03:41:12.013Z,76.52
2018-01-15T03:41:52.307Z,76.71
2018-01-15T03:42:32.843Z,76.86
2018-01-15T03:43:13.965Z,76.32
2018-01-15T03:43:54.488Z,76.61
2018-01-15T03:44:35.074Z,76.61
2018-01-15T03:45:15.623Z,76.61
2018-01-15T03:45:56.157Z,76.32
2018-01-15T03:46:36.664Z,76.14
2018-01-15T03:47:17.215Z,76.23
2018-01-15T03:47:57.868Z,76.14
2018-01-15T03:48:38.688Z,76.14
2018-01-15T03:49:19.255Z,76.32
2018-01-15T03:49:59.798Z,75.95
2018-01-15T03:50:40.310Z,75.85
2018-01-15T03:51:20.850Z,75.38
2018-01-15T03:52:01.368Z,75.57
2018-01-15T03:52:41.895Z,75.38
2018-01-15T03:53:22.425Z,75.95
2018-01-15T03:54:02.971Z,75.85
2018-01-15T03:54:43.514Z,75.95
2018-01-15T03:55:24.013Z,75.28
2018-01-15T03:56:04.499Z,76.04
2018-01-15T03:56:45.025Z,76.04
2018-01-15T03:57:25.593Z,76.04
2018-01-15T03:58:06.143Z,76.32
2018-01-15T03:58:46.666Z,75.67
2018-01-15T03:59:27.183Z,76.04
2018-01-15T04:00:07.745Z,76.04
2018-01-15T04:00:48.256Z,76.14
2018-01-15T04:01:28.784Z,75.76
2018-01-15T04:02:09.334Z,75.67
2018-01-15T04:02:49.806Z,75.95
2018-01-15T04:03:30.324Z,76.04
2018-01-15T04:04:10.885Z,76.23
2018-01-15T04:04:51.401Z,76.14
2018-01-15T04:05:31.973Z,76.71
2018-01-15T04:06:12.472Z,76.23
2018-01-15T04:06:52.973Z,76.23
2018-01-15T04:07:33.515Z,76.9
2018-01-15T04:08:14.052Z,76.42
2018-01-15T04:08:54.638Z,76.61
2018-01-15T04:09:35.169Z,76.9
2018-01-15T04:10:15.654Z,76.61
2018-01-15T04:10:56.193Z,76.23
2018-01-15T04:11:36.765Z,76.42
2018-01-15T04:12:17.283Z,76.52
2018-01-15T04:12:57.893Z,76.61
2018-01-15T04:13:38.341Z,76.14
2018-01-15T04:14:18.870Z,76.14
2018-01-15T04:14:59.424Z,76.52
2018-01-15T04:15:39.976Z,76.61
2018-01-15T04:16:20.505Z,76.42
2018-01-15T04:17:01.031Z,76.61
2018-01-15T04:17:41.598Z,76.42
2018-01-15T04:18:22.090Z,76.32
2018-01-15T04:19:02.588Z,76.52
2018-01-15T04:19:43.152Z,76.32
2018-01-15T04:20:23.683Z,76.52
2018-01-15T04:21:04.173Z,76.52
2018-01-15T04:21:44.699Z,76.42
2018-01-15T04:22:25.256Z,76.32
2018-01-15T04:23:05.845Z,75.95
2018-01-15T04:23:46.321Z,75.67
2018-01-15T04:24:26.888Z,76.23
2018-01-15T04:25:07.428Z,75.76
2018-01-15T04:25:47.933Z,76.14
2018-01-15T04:26:28.460Z,75.85
2018-01-15T04:27:09.005Z,75.28
2018-01-15T04:27:49.537Z,75.38
2018-01-15T04:28:30.082Z,75.28
2018-01-15T04:29:10.549Z,75.19
2018-01-15T04:29:51.091Z,75.28
2018-01-15T04:30:31.649Z,75.57
2018-01-15T04:31:12.163Z,75.95
2018-01-15T04:31:52.698Z,75.67
2018-01-15T04:32:33.234Z,75.67
2018-01-15T04:33:13.780Z,75.28
2018-01-15T04:33:54.289Z,75.47
2018-01-15T04:34:34.838Z,75.85
2018-01-15T04:35:15.397Z,75.76
2018-01-15T04:35:55.877Z,76.32
2018-01-15T04:36:36.398Z,76.14
2018-01-15T04:37:16.952Z,76.14
2018-01-15T04:37:57.479Z,76.23
2018-01-15T04:38:38.001Z,76.39
2018-01-15T04:39:18.527Z,76.48
2018-01-15T04:39:59.054Z,77.14
2018-01-15T04:40:39.558Z,77.43
2018-01-15T04:41:20.077Z,77.71
2018-01-15T04:42:00.629Z,77.9
2018-01-15T04:42:41.199Z,77.71
2018-01-15T04:43:21.676Z,77.71
2018-01-15T04:44:02.200Z,77.52
2018-01-15T04:44:42.711Z,77.43
2018-01-15T04:45:23.240Z,77.43
2018-01-15T04:46:03.774Z,77.71
2018-01-15T04:46:44.286Z,77.81
2018-01-15T04:47:24.824Z,77.71
2018-01-15T04:48:05.341Z,77.9
2018-01-15T04:48:45.890Z,77.52
2018-01-15T04:49:26.432Z,77.9
2018-01-15T04:50:06.938Z,77.52
2018-01-15T04:50:47.464Z,77.62
2018-01-15T04:51:28.014Z,78.19
2018-01-15T04:52:08.560Z,77.24
2018-01-15T04:52:49.070Z,77.05
2018-01-15T04:53:29.610Z,77.43
2018-01-15T04:54:10.156Z,77.71
2018-01-15T04:54:50.681Z,77.52
2018-01-15T04:55:31.235Z,77.71
2018-01-15T04:56:11.746Z,77.43
2018-01-15T04:56:52.317Z,77.52
2018-01-15T04:57:32.860Z,77.71
2018-01-15T04:58:13.420Z,77.71
2018-01-15T04:58:53.961Z,77.62
2018-01-15T04:59:34.513Z,77.71
2018-01-15T05:00:15.073Z,77.62
2018-01-15T05:00:55.609Z,77.71
2018-01-15T05:01:36.199Z,77.52
2018-01-15T05:02:16.659Z,77.81
2018-01-15T05:02:57.182Z,77.62
2018-01-15T05:03:37.715Z,77.52
2018-01-15T05:04:18.236Z,78.19
2018-01-15T05:04:58.818Z,78.09
2018-01-15T05:05:39.375Z,78.19
2018-01-15T05:06:19.883Z,78.28
2018-01-15T05:07:00.416Z,78.19
2018-01-15T05:07:40.919Z,78
2018-01-15T05:08:21.453Z,78
2018-01-15T05:09:01.983Z,77.9
2018-01-15T05:09:42.528Z,78.09
2018-01-15T05:10:23.002Z,77.9
2018-01-15T05:11:03.547Z,78.19
2018-01-15T05:11:44.064Z,77.9
2018-01-15T05:12:24.625Z,78
2018-01-15T05:13:05.168Z,77.9
2018-01-15T05:13:45.681Z,77.71
2018-01-15T05:14:26.196Z,78.28
2018-01-15T05:15:06.763Z,77.52
2018-01-15T05:15:47.298Z,77.71
2018-01-15T05:16:27.875Z,77.52
2018-01-15T05:17:08.373Z,77.71
2018-01-15T05:17:48.909Z,77.9
2018-01-15T05:18:29.479Z,78.19
2018-01-15T05:19:10.027Z,78.09
2018-01-15T05:19:50.560Z,78.28
2018-01-15T05:20:31.083Z,77.9
2018-01-15T05:21:11.672Z,77.9
2018-01-15T05:21:52.105Z,77.9
2018-01-15T05:22:32.630Z,77.81
2018-01-15T05:23:13.341Z,78.09
2018-01-15T05:23:53.880Z,78.19
2018-01-15T05:24:34.382Z,78.19
2018-01-15T05:25:14.962Z,78
2018-01-15T05:25:55.452Z,78.47
2018-01-15T05:26:36.059Z,78.56
2018-01-15T05:27:16.527Z,78.47
2018-01-15T05:27:57.106Z,78.66
2018-01-15T05:28:37.583Z,78.56
2018-01-15T05:29:18.084Z,78.66
2018-01-15T05:29:58.588Z,78.38
2018-01-15T05:30:39.145Z,78.56
2018-01-15T05:31:19.696Z,78.47
2018-01-15T05:32:00.209Z,78.56
2018-01-15T05:32:40.745Z,78.47
2018-01-15T05:33:21.347Z,78.38
2018-01-15T05:34:01.790Z,78.38
2018-01-15T05:34:42.349Z,78.66
2018-01-15T05:35:22.862Z,78.75
2018-01-15T05:36:03.418Z,78.95
2018-01-15T05:36:43.962Z,78.75
2018-01-15T05:37:24.504Z,78.95
2018-01-15T05:38:05.065Z,78.95
2018-01-15T05:38:45.609Z,79.14
2018-01-15T05:39:26.154Z,78.66
2018-01-15T05:40:06.666Z,78.75
2018-01-15T05:40:47.196Z,78.95
2018-01-15T05:41:27.711Z,78.66
2018-01-15T05:42:08.252Z,78.75
2018-01-15T05:42:48.786Z,78.47
2018-01-15T05:43:29.325Z,79.04
2018-01-15T05:44:09.901Z,79.04
2018-01-15T05:44:50.404Z,79.42
2018-01-15T05:45:31.012Z,78.95
2018-01-15T05:46:11.538Z,79.52
2018-01-15T05:46:52.052Z,79.61
2018-01-15T05:47:32.633Z,79.33
2018-01-15T16:08:45.249Z,77.66
2018-01-15T16:09:25.796Z,76.9
2018-01-15T16:10:06.341Z,76.71
2018-01-15T16:10:46.902Z,77.37
2018-01-15T16:11:27.503Z,77.19
2018-01-15T16:12:08.027Z,78.04
2018-01-15T16:12:48.740Z,77.76
2018-01-15T16:13:29.265Z,78.52
2018-01-15T16:14:09.982Z,77.95
2018-01-15T16:14:50.504Z,77.85
2018-01-15T16:15:30.999Z,78.14
2018-01-15T16:16:11.608Z,78.14
2018-01-15T16:16:52.077Z,78.04
2018-01-15T16:17:32.620Z,78.23
2018-01-15T16:18:13.154Z,78.23
2018-01-15T16:18:53.719Z,78.52
2018-01-15T16:19:34.885Z,78.9
2018-01-15T16:20:15.321Z,78.42
2018-01-15T16:20:55.891Z,78.9
2018-01-15T16:21:36.422Z,78.8
2018-01-15T16:22:16.944Z,78.9
2018-01-15T16:22:57.460Z,79.28
2018-01-15T16:23:37.980Z,78.99
2018-01-15T16:24:18.509Z,78.99
2018-01-15T16:24:59.049Z,78.8
2018-01-15T16:25:39.593Z,79.85
2018-01-15T16:26:20.146Z,78.8
2018-01-15T16:27:00.668Z,79.66
2018-01-15T16:27:41.185Z,79.66
2018-01-15T16:28:21.692Z,79.47
2018-01-15T16:29:02.266Z,79.66
2018-01-15T16:29:42.764Z,79.57
2018-01-15T16:30:23.325Z,79.66
2018-01-15T16:31:03.814Z,79.47
2018-01-15T16:31:44.339Z,79.66
2018-01-15T16:32:24.912Z,79.38
2018-01-15T16:33:05.436Z,79.66
2018-01-15T16:33:46.012Z,79.28
2018-01-15T16:34:26.600Z,79.94
2018-01-15T16:35:07.103Z,80.04
2018-01-15T16:35:47.627Z,79.75
2018-01-15T16:36:28.183Z,79.66
2018-01-15T16:37:08.734Z,79.57
2018-01-15T16:37:49.251Z,80.13
2018-01-15T16:38:29.764Z,79.85
2018-01-15T16:39:10.422Z,79.38
2018-01-15T16:39:50.911Z,79.47
2018-01-15T16:40:31.446Z,79.57
2018-01-15T16:41:12.187Z,79.28
2018-01-15T16:41:52.653Z,79.75
2018-01-15T16:42:33.213Z,80.04
2018-01-15T16:43:13.884Z,79.75
2018-01-15T16:43:54.248Z,80.04
2018-01-15T16:44:34.830Z,79.94
2018-01-15T16:45:15.673Z,79.85
2018-01-15T16:45:56.123Z,80.04
2018-01-15T16:46:36.724Z,79.19
2018-01-15T16:47:17.260Z,79.57
2018-01-15T16:47:57.776Z,79.7
2018-01-15T16:48:38.339Z,78.9
2018-01-15T16:49:19.755Z,78.9
2018-01-15T16:50:00.305Z,78.8
2018-01-15T16:50:40.869Z,79.19
2018-01-15T16:51:21.392Z,79.19
2018-01-15T16:52:01.985Z,78.99
2018-01-15T16:52:42.673Z,79.47
2018-01-15T16:53:23.222Z,79.28
2018-01-15T16:54:03.763Z,79.09
2018-01-15T16:54:44.322Z,78.9
2018-01-15T16:55:24.879Z,79.28
2018-01-15T16:56:05.411Z,78.8
2018-01-15T16:56:45.975Z,78.52
2018-01-15T16:57:26.518Z,78.52
2018-01-15T16:58:07.075Z,78.42
2018-01-15T16:58:47.600Z,78.8
2018-01-15T16:59:28.168Z,78.99
2018-01-15T17:00:08.755Z,78.61
2018-01-15T17:00:49.284Z,78.71
2018-01-15T17:01:29.831Z,78.71
2018-01-15T17:02:10.448Z,79.09
2018-01-15T17:02:51.011Z,78.8
2018-01-15T17:03:31.548Z,78.61
2018-01-15T17:04:12.134Z,78.8
2018-01-15T17:04:52.713Z,79.09
2018-01-15T17:05:33.322Z,78.8
2018-01-15T17:06:13.832Z,79.28
2018-01-15T17:06:54.407Z,79.09
2018-01-15T17:07:34.962Z,79.09
2018-01-15T17:08:15.416Z,78.99
2018-01-15T17:08:55.927Z,79.47
2018-01-15T17:09:36.496Z,79.38
2018-01-15T17:10:17.010Z,78.9
2018-01-15T17:10:57.728Z,79.09
2018-01-15T17:11:38.124Z,79.19
2018-01-15T17:12:18.662Z,78.61
2018-01-15T17:12:59.235Z,78.61
2018-01-15T17:13:39.780Z,78.61
2018-01-15T17:14:20.324Z,78.8
2018-01-15T17:15:00.950Z,78.8
2018-01-15T17:15:41.456Z,77.95
2018-01-15T17:16:22.063Z,78.14
2018-01-15T17:17:02.569Z,78.23
2018-01-15T17:17:43.063Z,77.95
2018-01-15T17:18:23.621Z,78.14
2018-01-15T17:19:04.178Z,77.95
2018-01-15T17:19:44.737Z,78.33
2018-01-15T17:20:25.223Z,78.04
2018-01-15T17:21:05.839Z,78.14
2018-01-15T17:21:46.382Z,78.37
2018-01-15T17:22:27.000Z,77.95
2018-01-15T17:23:07.502Z,77.95
2018-01-15T17:23:47.942Z,77.95
2018-01-15T17:24:28.466Z,77.8
2018-01-15T17:25:09.008Z,77.85
2018-01-15T17:25:49.578Z,77.47
2018-01-15T17:26:30.095Z,78.04
2018-01-15T17:27:10.609Z,77.98
2018-01-15T17:27:51.168Z,78.08
2018-01-15T17:28:31.770Z,78.33
2018-01-15T17:29:12.281Z,78.27
2018-01-15T17:29:53.569Z,78.17
2018-01-15T17:30:34.081Z,78.27
2018-01-15T17:31:14.715Z,78.8
2018-01-15T17:31:55.341Z,78.94
2018-01-15T17:32:35.811Z,78.94
2018-01-15T17:33:16.349Z,79.03
2018-01-15T17:33:56.924Z,78.94
2018-01-15T17:34:37.451Z,79.03
2018-01-15T17:35:18.096Z,78.56
2018-01-15T17:35:58.649Z,79.32
2018-01-15T17:36:39.174Z,79.41
2018-01-15T17:37:19.627Z,78.75
2018-01-15T17:38:00.211Z,78.75
2018-01-15T17:38:40.748Z,79.22
2018-01-15T17:39:21.295Z,80.27
2018-01-15T17:40:01.776Z,80.27
2018-01-15T17:40:42.280Z,80.36
2018-01-15T17:41:22.907Z,80.75
2018-01-15T17:42:03.377Z,80.36
2018-01-15T17:42:43.888Z,80.84
2018-01-15T17:43:24.486Z,80.94
2018-01-15T17:44:04.991Z,81.41
2018-01-15T17:44:45.541Z,81.6
2018-01-15T17:45:26.067Z,81.32
2018-01-15T17:46:06.653Z,81.32
2018-01-15T17:46:47.177Z,81.23
2018-01-15T17:47:27.771Z,80.75
2018-01-15T17:48:08.341Z,80.94
2018-01-15T17:48:48.845Z,81.41
2018-01-15T17:49:29.333Z,81.23
2018-01-15T17:50:09.883Z,82.08
2018-01-15T17:50:50.445Z,81.37
2018-01-15T17:51:30.940Z,81.56
2018-01-15T17:52:11.487Z,81.85
2018-01-15T17:52:52.011Z,82.42
2018-01-15T17:53:32.507Z,82.37
2018-01-15T17:54:13.111Z,83.18
2018-01-15T17:54:53.675Z,82.84
2018-01-15T17:55:34.138Z,83.75
2018-01-15T17:56:14.638Z,84.33
2018-01-15T17:56:55.190Z,83.65
2018-01-15T17:57:35.704Z,83.94
2018-01-15T17:58:16.246Z,84.61
2018-01-15T17:58:56.737Z,84.61
2018-01-15T17:59:37.290Z,84.42
2018-01-15T18:00:17.871Z,84.61
2018-01-15T18:00:58.362Z,85.37
2018-01-15T18:01:38.951Z,85.37
2018-01-15T18:02:19.477Z,85.56
2018-01-15T18:02:59.993Z,85.85
2018-01-15T18:03:40.487Z,86.22
2018-01-15T18:04:21.104Z,85.85
2018-01-15T18:05:01.761Z,86.04
2018-01-15T18:05:42.199Z,86.42
2018-01-15T18:06:22.763Z,86.7
2018-01-15T18:07:03.260Z,85.94
2018-01-15T18:07:43.911Z,86.7
2018-01-15T18:08:24.405Z,86.61
2018-01-15T18:09:04.970Z,86.8
2018-01-15T18:09:45.574Z,87.37
2018-01-15T18:10:26.357Z,87.27
2018-01-15T18:11:06.918Z,87.56
2018-01-15T18:11:47.473Z,87.56
2018-01-15T18:12:27.979Z,87.94
2018-01-15T18:13:08.534Z,88.23
2018-01-15T18:13:49.157Z,88.6
2018-01-15T18:14:29.700Z,89.18
2018-01-15T18:15:10.200Z,89.08
2018-01-15T18:15:50.796Z,89.65
2018-01-15T18:16:31.294Z,89.56
2018-01-15T18:17:11.898Z,89.56
2018-01-15T18:17:52.331Z,89.18
2018-01-15T18:18:32.957Z,89.18
2018-01-15T18:19:13.499Z,89.27
2018-01-15T18:19:54.093Z,89.56
2018-01-15T18:20:34.610Z,89.84
2018-01-15T18:21:15.177Z,89.47
2018-01-15T18:21:55.837Z,89.94
2018-01-15T18:22:36.396Z,90.22
2018-01-15T18:23:16.907Z,90.13
2018-01-15T18:23:57.485Z,90.8
2018-01-15T18:24:38.021Z,90.89
2018-01-15T18:25:18.626Z,91.08
2018-01-15T18:25:59.181Z,90.61
2018-01-15T18:26:39.851Z,91.17
2018-01-15T18:27:20.264Z,90.99
2018-01-15T18:28:00.841Z,91.08
2018-01-15T18:28:41.451Z,91.46
2018-01-15T18:29:22.000Z,91.84
2018-01-15T18:30:02.617Z,91.65
2018-01-15T18:30:43.155Z,91.65
2018-01-15T18:31:23.773Z,91.56
2018-01-15T18:32:04.286Z,92.08
2018-01-15T18:32:45.124Z,92.41
2018-01-15T18:33:25.678Z,92.51
2018-01-15T18:34:06.293Z,92.36
2018-01-15T18:34:46.746Z,92.75
2018-01-15T18:35:27.397Z,93.51
2018-01-15T18:36:07.973Z,93.13
2018-01-15T18:36:48.502Z,93.23
2018-01-15T18:37:29.529Z,94.18
2018-01-15T18:39:22.921Z,93.98
2018-01-15T18:40:03.704Z,93.98
2018-01-15T18:40:44.225Z,93.7
2018-01-15T18:41:24.823Z,93.89
2018-01-15T18:42:05.381Z,93.7
2018-01-15T18:42:46.419Z,94.56
2018-01-15T18:43:26.767Z,94.74
2018-01-15T18:44:07.307Z,94.18
2018-01-15T18:44:48.916Z,94.18
2018-01-15T18:45:29.819Z,94.93
2018-01-15T18:46:10.520Z,95.32
2018-01-15T18:46:51.061Z,95.6
2018-01-15T18:47:31.627Z,95.03
2018-01-15T18:48:12.204Z,95.32
2018-01-15T18:48:52.734Z,95.41
2018-01-15T18:49:33.293Z,95.12
2018-01-15T18:50:13.933Z,95.32
2018-01-15T18:50:54.513Z,95.12
2018-01-15T18:51:35.076Z,95.32
2018-01-15T18:52:15.624Z,95.6
2018-01-15T18:52:56.263Z,95.75
2018-01-15T18:53:36.829Z,95.89
2018-01-15T18:54:17.626Z,95.79
2018-01-15T18:54:58.147Z,96.26
2018-01-15T18:55:38.764Z,96.26
2018-01-15T18:56:19.326Z,96.65
2018-01-15T18:56:59.937Z,96.65
2018-01-15T18:57:40.434Z,96.65
2018-01-15T18:58:21.172Z,96.94
2018-01-15T18:59:01.711Z,96.94
2018-01-15T18:59:42.266Z,96.55
2018-01-15T19:00:22.822Z,96.74
2018-01-15T19:01:03.614Z,97.5
2018-01-15T19:01:44.709Z,97.41
2018-01-15T19:02:25.915Z,97.41
2018-01-15T19:03:06.602Z,97.69
2018-01-15T19:03:47.225Z,97.69
2018-01-15T19:04:27.813Z,98.27
2018-01-15T19:05:08.312Z,98.17
2018-01-15T19:05:48.927Z,98.36
2018-01-15T19:06:29.464Z,98.17
2018-01-15T19:07:10.033Z,97.98
2018-01-15T19:07:50.542Z,97.79